• Join FlightAware (Why Join?)
  • Login
  • US Flag 
01:25PM EDT


 

Airport Tracker/Info


-or-


 

Live Flight TrackerFlight Track Log ✈ CCA4121 ✈ 26-Oct-2013 ✈ ZUJZ / JZH - ZBAA / PEK

Flight Track Log - Related Links

Times and Time Zones

All times are in EDT time to prevent confusion due to time zone crossing. See the CCA4121 flight status page for this flight to view local times or setup timezone preferences in your user account.

Time Position Orientation Groundspeed Altitude Reporting Facility
EDT Latitude Longitude Course Direction KTS MPH feet Rate Location/Type
07:47AM 33.0567 103.9824 51° Northeast  Level Estimated
07:48AM 33.1231 104.0824 52° Northeast  Level Estimated
07:49AM 33.1894 104.1827 52° Northeast  Level Estimated
07:50AM 33.2556 104.2831 52° Northeast  Level Estimated
07:51AM 33.3218 104.3836 52° Northeast  Level Estimated
07:52AM 33.3879 104.4843 52° Northeast  Level Estimated
07:53AM 33.4539 104.5852 52° Northeast  Level Estimated
07:54AM 33.5198 104.6861 52° Northeast  Level Estimated
07:54AM 32.8240 104.4040 52° Northeast 447 514 28,800  Level FlightAware
07:54AM 32.8070 104.4560 111° Southeast 441 507 29,900 1,800 Climbing FlightAware
07:55AM 33.5857 104.7873 52° Northeast  Level Estimated
07:55AM 32.7740 104.5550 112° Southeast 456 525 30,800  Level FlightAware
07:55AM 32.7500 104.6300 111° Southeast 457 526 31,000 1,260 Climbing FlightAware
07:56AM 32.7150 104.7330 112° Southeast 476 548 32,400 1,080 Climbing FlightAware
07:57AM 32.6890 104.8120 111° Southeast 476 548 32,400  Level FlightAware
07:57AM 32.6570 104.9120 111° Southeast 476 548 32,400  Level FlightAware
07:58AM 32.6250 105.0110 111° Southeast 476 548 32,400  Level FlightAware
07:59AM 32.5920 105.1130 111° Southeast 476 548 32,400  Level FlightAware
08:00AM 32.5680 105.1880 111° Southeast 476 548 32,400  Level FlightAware
08:01AM 32.5350 105.2890 111° Southeast 476 548 32,400  Level FlightAware
08:01AM 32.5030 105.3890 111° Southeast 476 548 32,400  Level FlightAware
08:02AM 32.4700 105.4880 112° Southeast 476 548 32,400  Level FlightAware
08:03AM 32.4460 105.5650 110° East 476 548 32,400  Level FlightAware
08:03AM 32.4210 105.6390 112° Southeast 476 548 32,400  Level FlightAware
08:04AM 32.3900 105.7370 111° Southeast 476 548 32,400  Level FlightAware
08:05AM 32.3730 105.7880 112° Southeast 476 548 32,400  Level FlightAware
08:05AM 32.3410 105.8880 111° Southeast 476 548 32,400 -180 Level FlightAware
08:08AM 32.5046 106.0825 45° Northeast  Level Estimated
08:09AM 32.5800 106.1725 45° Northeast  Level Estimated
08:10AM 32.6553 106.2626 45° Northeast  Level Estimated
08:11AM 32.7306 106.3529 45° Northeast  Level Estimated
08:12AM 32.8058 106.4434 45° Northeast  Level Estimated
08:13AM 32.8809 106.5340 45° Northeast  Level Estimated
08:14AM 32.9560 106.6247 45° Northeast  Level Estimated
08:15AM 33.0310 106.7157 45° Northeast  Level Estimated
08:16AM 33.1060 106.8067 45° Northeast  Level Estimated
08:17AM 33.1809 106.8979 46° Northeast  Level Estimated
08:18AM 33.2557 106.9893 46° Northeast  Level Estimated
08:19AM 33.3304 107.0809 46° Northeast  Level Estimated
08:20AM 33.4051 107.1726 46° Northeast  Level Estimated
08:21AM 33.4797 107.2644 46° Northeast  Level Estimated
08:22AM 33.5542 107.3564 46° Northeast  Level Estimated
08:23AM 33.6287 107.4486 46° Northeast  Level Estimated
08:24AM 33.7031 107.5409 46° Northeast  Level Estimated
08:25AM 33.7774 107.6334 46° Northeast  Level Estimated
08:26AM 33.8517 107.7261 46° Northeast  Level Estimated
08:27AM 33.9259 107.8189 46° Northeast  Level Estimated
08:28AM 34.0000 107.9118 46° Northeast  Level Estimated
08:29AM 34.0741 108.0050 46° Northeast  Level Estimated
08:30AM 34.1481 108.0983 46° Northeast  Level Estimated
08:31AM 34.2220 108.1917 46° Northeast  Level Estimated
08:32AM 34.2958 108.2854 46° Northeast  Level Estimated
08:33AM 34.3696 108.3792 46° Northeast  Level Estimated
08:34AM 34.4433 108.4731 46° Northeast  Level Estimated
08:35AM 34.5169 108.5672 46° Northeast  Level Estimated
08:36AM 34.5905 108.6615 47° Northeast  Level Estimated
08:37AM 34.6640 108.7560 47° Northeast  Level Estimated
08:38AM 34.7374 108.8506 47° Northeast  Level Estimated
08:39AM 34.8107 108.9454 47° Northeast  Level Estimated
08:40AM 34.8840 109.0403 47° Northeast  Level Estimated
08:41AM 34.9572 109.1355 47° Northeast  Level Estimated
08:42AM 35.0303 109.2308 47° Northeast  Level Estimated
08:43AM 35.1034 109.3262 47° Northeast  Level Estimated
08:44AM 35.1763 109.4219 47° Northeast  Level Estimated
08:45AM 35.2492 109.5177 47° Northeast  Level Estimated
08:46AM 35.3220 109.6137 47° Northeast  Level Estimated
08:47AM 35.3948 109.7098 47° Northeast  Level Estimated
08:48AM 35.4674 109.8062 47° Northeast  Level Estimated
08:49AM 35.5400 109.9027 47° Northeast  Level Estimated
08:50AM 35.6125 109.9993 47° Northeast  Level Estimated
08:51AM 35.6850 110.0962 47° Northeast  Level Estimated
08:52AM 35.7573 110.1932 47° Northeast  Level Estimated
08:53AM 35.8296 110.2904 47° Northeast  Level Estimated
08:54AM 35.9018 110.3878 48° Northeast  Level Estimated
08:55AM 35.9739 110.4854 48° Northeast  Level Estimated
08:56AM 36.0460 110.5831 48° Northeast  Level Estimated
08:57AM 36.1179 110.6810 48° Northeast  Level Estimated
08:58AM 36.1898 110.7791 48° Northeast  Level Estimated
08:59AM 36.2616 110.8774 48° Northeast  Level Estimated
09:00AM 36.3333 110.9759 48° Northeast  Level Estimated
09:01AM 36.4049 111.0745 48° Northeast  Level Estimated
09:02AM 36.4765 111.1733 48° Northeast  Level Estimated
09:03AM 36.5480 111.2723 48° Northeast  Level Estimated
09:04AM 36.6194 111.3715 48° Northeast  Level Estimated
09:05AM 36.6907 111.4709 48° Northeast  Level Estimated
09:06AM 36.7619 111.5705 48° Northeast  Level Estimated
09:07AM 36.8331 111.6702 48° Northeast  Level Estimated
09:08AM 36.9041 111.7701 48° Northeast  Level Estimated
09:09AM 36.9751 111.8702 48° Northeast  Level Estimated
09:10AM 37.0460 111.9705 48° Northeast  Level Estimated
09:11AM 37.1168 112.0710 49° Northeast  Level Estimated
09:12AM 37.1875 112.1717 49° Northeast  Level Estimated
09:13AM 37.2582 112.2726 49° Northeast  Level Estimated
09:14AM 37.3287 112.3736 49° Northeast  Level Estimated
09:15AM 37.3992 112.4749 49° Northeast  Level Estimated
09:16AM 37.4696 112.5763 49° Northeast  Level Estimated
09:17AM 37.5399 112.6779 49° Northeast  Level Estimated
09:18AM 37.6101 112.7797 49° Northeast  Level Estimated
09:19AM 37.6802 112.8818 49° Northeast  Level Estimated
09:20AM 37.7502 112.9839 49° Northeast  Level Estimated
09:20AM 38.2440 114.6120 49° Northeast 408 470 23,200  Level FlightAware
09:20AM 38.2760 114.6880 62° Northeast 408 470 22,600 -960 Descending FlightAware
09:21AM 37.8202 113.0863 49° Northeast  Level Estimated
09:21AM 38.3210 114.7790 58° Northeast 394 453 21,900  Level FlightAware
09:22AM 38.3580 114.8510 57° Northeast 389 448 21,300 -480 Descending FlightAware
09:22AM 38.3920 114.9170 57° Northeast 389 448 21,300  Level FlightAware
09:23AM 38.4220 114.9760 57° Northeast 389 448 21,300  Level FlightAware
09:23AM 38.4520 115.0360 57° Northeast 389 448 21,300 -1,860 Level FlightAware
09:24AM 38.5120 115.1550 57° Northeast 372 428 18,600 -2,340 Descending FlightAware
09:25AM 38.5450 115.2210 57° Northeast 371 427 18,000 -1,080 Descending FlightAware
09:26AM 38.5820 115.2960 58° Northeast 388 447 17,300 -1,080 Descending FlightAware
09:26AM 38.6220 115.3770 58° Northeast 383 441 16,600 -1,020 Descending FlightAware
09:27AM 38.6590 115.4500 57° Northeast 380 437 16,000 -720 Descending FlightAware
09:27AM 38.6930 115.5190 58° Northeast 379 436 15,700 -300 Descending FlightAware
09:28AM 38.7210 115.5760 58° Northeast 377 434 15,700  Level FlightAware
09:29AM 38.7510 115.6360 57° Northeast 376 433 15,700  Level FlightAware
09:29AM 38.7950 115.7230 57° Northeast 377 434 15,700  Level FlightAware
09:31AM 38.8650 115.8670 58° Northeast 377 434 15,700  Level FlightAware
09:32AM 38.9250 115.9890 58° Northeast 378 435 15,700  Level FlightAware
09:32AM 38.9610 116.0620 58° Northeast 397 457 15,700  Level FlightAware
09:33AM 39.0010 116.1450 58° Northeast 399 459 15,700  Level FlightAware
09:34AM 39.0410 116.2270 58° Northeast 398 458 15,700 -300 Level FlightAware
09:34AM 39.0900 116.2950 47° Northeast 382 440 15,300 -720 Descending FlightAware
09:35AM 39.1510 116.3340 26° Northeast 385 443 14,800 -540 Descending FlightAware
09:36AM 39.2090 116.3710 26° Northeast 383 441 14,700 -660 Descending FlightAware
09:36AM 39.2740 116.4120 26° Northeast 380 437 14,000 -1,080 Descending FlightAware
09:37AM 39.3360 116.4510 26° Northeast 369 425 13,200 -1,140 Descending FlightAware
09:38AM 39.4050 116.4950 26° Northeast 333 383 12,400 -900 Descending FlightAware
09:38AM 39.4530 116.5270 27° Northeast 306 352 12,000 -1,080 Descending FlightAware
09:39AM 39.5070 116.5620 27° Northeast 297 342 11,000 -1,200 Descending FlightAware
09:40AM 39.5590 116.5950 26° Northeast 277 319 10,300 -780 Descending FlightAware
09:40AM 39.6030 116.6230 26° Northeast 253 291 10,000 -600 Descending FlightAware
09:41AM 39.6360 116.6450 27° Northeast 234 269 9,600 -780 Descending FlightAware
09:42AM 39.6740 116.6570 14° North 208 239 9,100 -1,140 Descending FlightAware
09:42AM 39.7160 116.6530 356° North 200 230 8,100 -1,440 Descending FlightAware
09:43AM 39.7530 116.6470 353° North 197 227 7,100 -1,620 Descending FlightAware
09:44AM 39.7910 116.6410 353° North 204 235 5,900 -1,800 Descending FlightAware
09:44AM 39.8180 116.6370 354° North 211 243 5,000 -1,920 Descending FlightAware
09:45AM 39.8540 116.6320 354° North 216 249 3,900 -1,620 Descending FlightAware
09:45AM 39.8810 116.6280 354° North 205 236 3,300 -1,020 Descending FlightAware
09:46AM 39.9230 116.6210 353° North 171 197 2,600 -900 Descending FlightAware
09:47AM 39.9550 116.6160 353° North 155 178 1,900 -900 Descending FlightAware
09:48AM 39.9930 116.6100 353° North 145 167 1,200 -600 Descending FlightAware
09:48AM 40.0100 116.6070 352° North 145 167 1,100 -240 Descending FlightAware